ADDS TAF Data INFO
IDs: Format: Raw Decoded Include METARs

Data at: 1159 UTC 23 Jun 2018

KSRQ 231121Z 2312/2412 27008KT P6SM SCT025 SCT250
  FM231400 27008KT P6SM VCTS SCT030CB SCT250
  FM231800 29010KT P6SM FEW035 BKN250
  FM240000 30004KT P6SM FEW030 SCT250